createdAt,value
2022-10-05T00:01:01.207Z,14.88
2022-10-05T00:06:03.391Z,14.88
2022-10-05T00:11:08.842Z,14.90
2022-10-05T00:16:10.517Z,14.87
2022-10-05T00:21:19.531Z,14.84
2022-10-05T00:26:26.819Z,14.82
2022-10-05T00:31:32.903Z,14.82
2022-10-05T00:36:34.611Z,14.80
2022-10-05T00:42:04.851Z,14.80
2022-10-05T00:47:22.129Z,14.83
2022-10-05T00:52:45.162Z,14.83
2022-10-05T00:58:24.460Z,14.78
2022-10-05T01:03:35.327Z,14.72
2022-10-05T01:09:12.249Z,14.75
2022-10-05T01:14:13.825Z,14.76
2022-10-05T01:19:37.260Z,14.73
2022-10-05T01:24:55.158Z,14.72
2022-10-05T01:30:14.222Z,14.68
2022-10-05T01:35:29.836Z,14.70
2022-10-05T01:40:34.842Z,14.72
2022-10-05T01:46:03.631Z,14.68
2022-10-05T01:51:17.432Z,14.67
2022-10-05T01:56:38.124Z,14.64
2022-10-05T02:01:57.669Z,14.69
2022-10-05T02:07:06.963Z,14.65
2022-10-05T02:12:15.610Z,14.68
2022-10-05T02:17:22.039Z,14.65
2022-10-05T02:22:32.826Z,14.60
2022-10-05T02:27:54.968Z,14.60
2022-10-05T02:33:02.667Z,14.63
2022-10-05T02:38:13.667Z,14.60
2022-10-05T02:43:21.281Z,14.59
2022-10-05T02:48:23.035Z,14.57
2022-10-05T02:53:34.749Z,14.58
2022-10-05T02:58:49.130Z,14.55
2022-10-05T03:04:14.448Z,14.57
2022-10-05T03:09:19.916Z,14.54
2022-10-05T03:14:54.238Z,14.52
2022-10-05T03:20:02.038Z,14.50
2022-10-05T03:25:30.655Z,14.45
2022-10-05T03:31:01.123Z,14.42
2022-10-05T03:36:17.334Z,14.48
2022-10-05T03:41:31.410Z,14.46
2022-10-05T03:47:28.083Z,14.44
2022-10-05T03:52:38.882Z,14.45
2022-10-05T03:57:43.518Z,14.40
2022-10-05T04:03:02.965Z,14.40
2022-10-05T04:08:52.301Z,14.40
2022-10-05T04:14:06.766Z,14.41
2022-10-05T04:19:19.047Z,14.37
2022-10-05T04:24:27.441Z,14.36
2022-10-05T04:29:53.497Z,14.37
2022-10-05T04:35:08.193Z,14.36
2022-10-05T04:40:12.654Z,14.34
2022-10-05T04:45:52.135Z,14.29
2022-10-05T04:50:57.580Z,14.32
2022-10-05T04:56:34.934Z,14.27
2022-10-05T05:02:00.018Z,14.30
2022-10-05T05:07:21.782Z,14.28
2022-10-05T05:12:32.131Z,14.25
2022-10-05T05:18:03.203Z,14.24
2022-10-05T05:23:26.675Z,14.24
2022-10-05T05:28:46.824Z,14.27
2022-10-05T05:34:02.525Z,14.20
2022-10-05T05:39:14.573Z,14.25
2022-10-05T05:44:21.842Z,14.23
2022-10-05T05:49:38.672Z,14.18
2022-10-05T05:54:51.562Z,14.21
2022-10-05T05:59:56.386Z,14.19
2022-10-05T06:05:22.201Z,14.20
2022-10-05T06:10:47.210Z,14.17
2022-10-05T06:15:58.799Z,14.14
2022-10-05T06:21:08.591Z,14.22
2022-10-05T06:26:32.159Z,14.19
2022-10-05T06:31:59.070Z,14.22
2022-10-05T06:37:09.102Z,14.28
2022-10-05T06:42:16.936Z,14.32
2022-10-05T06:48:01.622Z,14.30
2022-10-05T06:53:48.437Z,14.31
2022-10-05T06:58:59.782Z,14.34
2022-10-05T07:04:16.665Z,14.36
2022-10-05T07:09:30.924Z,14.35
2022-10-05T07:14:46.216Z,14.34
2022-10-05T07:20:29.173Z,14.38
2022-10-05T07:25:50.256Z,14.36
2022-10-05T07:31:13.901Z,14.39
2022-10-05T07:37:24.257Z,14.45
2022-10-05T07:42:48.941Z,14.48
2022-10-05T07:47:58.681Z,14.50
2022-10-05T07:53:06.473Z,14.51
2022-10-05T07:58:14.406Z,14.58
2022-10-05T08:03:32.929Z,14.62
2022-10-05T08:08:45.140Z,14.65
2022-10-05T08:13:58.434Z,14.60
2022-10-05T08:19:08.564Z,14.65
2022-10-05T08:24:39.009Z,14.69
2022-10-05T08:29:49.372Z,14.73
2022-10-05T08:34:57.802Z,14.72
2022-10-05T08:40:26.681Z,14.73
2022-10-05T08:45:49.662Z,14.77
2022-10-05T08:51:12.977Z,14.82
2022-10-05T08:56:19.743Z,14.84
2022-10-05T09:01:50.804Z,14.84
2022-10-05T09:07:09.928Z,14.78
2022-10-05T09:12:49.360Z,14.84
2022-10-05T09:18:30.726Z,14.88
2022-10-05T09:23:42.949Z,14.89
2022-10-05T09:29:14.377Z,14.86
2022-10-05T09:34:39.743Z,14.92
2022-10-05T09:39:44.114Z,14.90
2022-10-05T09:45:23.595Z,14.98
2022-10-05T09:50:40.995Z,14.98
2022-10-05T09:55:53.535Z,15.04
2022-10-05T10:01:36.428Z,14.96
2022-10-05T10:07:13.310Z,14.97
2022-10-05T10:12:24.455Z,15.00
2022-10-05T10:17:50.891Z,14.97
2022-10-05T10:23:16.156Z,14.94
2022-10-05T10:28:35.601Z,14.94
2022-10-05T10:33:45.359Z,14.96
2022-10-05T10:38:58.591Z,15.00
2022-10-05T10:44:22.227Z,15.00
2022-10-05T10:50:07.318Z,14.98
2022-10-05T10:55:46.565Z,14.94
2022-10-05T11:01:06.761Z,15.01
2022-10-05T11:06:18.350Z,14.99
2022-10-05T11:11:27.039Z,14.93
2022-10-05T11:16:46.651Z,14.95
2022-10-05T11:22:12.859Z,15.00
2022-10-05T11:27:30.734Z,15.02
2022-10-05T11:32:38.420Z,14.95
2022-10-05T11:37:54.932Z,15.02
2022-10-05T11:43:13.633Z,15.08
2022-10-05T11:48:26.627Z,15.10
2022-10-05T11:53:38.922Z,15.12
2022-10-05T11:58:51.725Z,15.18
2022-10-05T12:04:34.086Z,15.26
2022-10-05T12:10:17.149Z,15.29
2022-10-05T12:15:29.041Z,15.41
2022-10-05T12:20:41.019Z,15.46
2022-10-05T12:26:32.224Z,15.55
2022-10-05T12:31:44.438Z,15.57
2022-10-05T12:37:11.323Z,15.70
2022-10-05T12:42:19.960Z,15.84
2022-10-05T12:47:35.597Z,15.98
2022-10-05T12:52:46.419Z,16.00
2022-10-05T12:57:56.234Z,16.12
2022-10-05T13:03:03.678Z,16.16
2022-10-05T13:08:18.015Z,16.09
2022-10-05T13:13:35.452Z,16.15
2022-10-05T13:19:01.129Z,16.38
2022-10-05T13:24:35.467Z,16.34
2022-10-05T13:30:03.796Z,16.33
2022-10-05T13:35:29.890Z,16.35
2022-10-05T13:40:47.809Z,16.27
2022-10-05T13:45:57.037Z,16.22
2022-10-05T13:51:08.742Z,16.59
2022-10-05T13:56:22.056Z,16.73
2022-10-05T14:01:35.738Z,16.59
2022-10-05T14:06:38.807Z,16.58
2022-10-05T14:11:53.685Z,16.55
2022-10-05T14:16:58.604Z,16.64
2022-10-05T14:22:22.305Z,16.59
2022-10-05T14:27:27.836Z,16.47
2022-10-05T14:32:44.197Z,16.39
2022-10-05T14:37:58.250Z,16.32
2022-10-05T14:43:17.489Z,16.23
2022-10-05T14:48:19.141Z,16.27
2022-10-05T14:53:36.444Z,16.23
2022-10-05T14:58:44.862Z,16.20
2022-10-05T15:04:00.034Z,16.15
2022-10-05T15:09:26.167Z,16.09
2022-10-05T15:14:36.496Z,16.11
2022-10-05T15:19:53.372Z,16.09
2022-10-05T15:25:14.063Z,16.01
2022-10-05T15:30:18.385Z,16.00
2022-10-05T15:35:38.738Z,15.96
2022-10-05T15:40:54.751Z,15.96
2022-10-05T15:46:34.555Z,15.97
2022-10-05T15:51:54.539Z,15.91
2022-10-05T15:57:10.932Z,15.94
2022-10-05T16:02:22.643Z,15.91
2022-10-05T16:07:50.426Z,15.92
2022-10-05T16:12:58.756Z,15.91
2022-10-05T16:18:29.031Z,15.90
2022-10-05T16:23:33.536Z,15.89
2022-10-05T16:28:54.115Z,15.94
2022-10-05T16:34:09.649Z,15.91
2022-10-05T16:39:40.809Z,15.90
2022-10-05T16:45:06.853Z,15.95
2022-10-05T16:50:20.914Z,15.97
2022-10-05T16:55:31.706Z,15.99
2022-10-05T17:01:00.423Z,15.97
2022-10-05T17:06:10.909Z,15.95
2022-10-05T17:11:42.576Z,16.01
2022-10-05T17:17:04.450Z,16.00
2022-10-05T17:22:09.555Z,16.03
2022-10-05T17:27:22.695Z,16.04
2022-10-05T17:32:56.381Z,16.04
2022-10-05T17:38:20.193Z,16.04
2022-10-05T17:43:32.540Z,15.99
2022-10-05T17:48:49.372Z,15.97
2022-10-05T17:54:09.622Z,15.83
2022-10-05T17:59:12.279Z,15.57
2022-10-05T18:04:27.012Z,15.34
2022-10-05T18:09:33.140Z,15.22
2022-10-05T18:15:06.761Z,15.02
2022-10-05T18:20:31.477Z,15.03
2022-10-05T18:25:51.679Z,14.93
2022-10-05T18:31:04.343Z,14.61
2022-10-05T18:36:27.499Z,14.40
2022-10-05T18:41:57.845Z,14.35
2022-10-05T18:47:05.477Z,14.39
2022-10-05T18:52:36.645Z,14.40
2022-10-05T18:58:04.365Z,14.40
2022-10-05T19:03:19.133Z,14.40
2022-10-05T19:08:43.039Z,14.44
2022-10-05T19:13:58.862Z,14.44
2022-10-05T19:19:33.171Z,14.28
2022-10-05T19:25:14.515Z,14.31
2022-10-05T19:30:23.072Z,14.23
2022-10-05T19:35:59.222Z,14.19
2022-10-05T19:41:14.445Z,14.23
2022-10-05T19:46:38.020Z,14.14
2022-10-05T19:51:50.618Z,14.23
2022-10-05T19:56:54.978Z,14.16
2022-10-05T20:01:57.915Z,14.18
2022-10-05T20:07:02.309Z,14.18
2022-10-05T20:12:04.125Z,14.22
2022-10-05T20:17:45.164Z,14.24
2022-10-05T20:22:47.013Z,14.18
2022-10-05T20:27:56.577Z,14.21
2022-10-05T20:33:00.599Z,14.30
2022-10-05T20:38:05.381Z,14.31
2022-10-05T20:43:08.518Z,14.32
2022-10-05T20:48:11.408Z,14.25
2022-10-05T20:53:13.237Z,14.12
2022-10-05T20:58:15.785Z,14.11
2022-10-05T21:03:18.650Z,14.08
2022-10-05T21:08:20.348Z,14.12
2022-10-05T21:13:22.028Z,14.14
2022-10-05T21:18:23.674Z,14.10
2022-10-05T21:23:25.343Z,14.03
2022-10-05T21:28:28.487Z,13.99
2022-10-05T21:33:30.669Z,13.97
2022-10-05T21:38:32.613Z,13.98
2022-10-05T21:43:34.820Z,13.95
2022-10-05T21:48:38.916Z,14.05
2022-10-05T21:53:48.410Z,14.03
2022-10-05T21:58:51.478Z,14.07
2022-10-05T22:03:53.178Z,14.02
2022-10-05T22:08:55.068Z,13.98
2022-10-05T22:14:02.645Z,14.03
2022-10-05T22:19:06.591Z,14.01
2022-10-05T22:24:09.590Z,13.98
2022-10-05T22:29:11.582Z,14.06
2022-10-05T22:34:13.776Z,14.09
2022-10-05T22:39:16.269Z,13.97
2022-10-05T22:44:17.871Z,13.94
2022-10-05T22:49:19.920Z,13.92
2022-10-05T22:54:23.573Z,13.88
2022-10-05T22:59:28.086Z,13.87
2022-10-05T23:04:30.090Z,13.87
2022-10-05T23:09:31.697Z,13.83
2022-10-05T23:14:33.327Z,13.73
2022-10-05T23:19:35.087Z,13.64
2022-10-05T23:24:36.846Z,13.67
2022-10-05T23:29:38.446Z,13.67
2022-10-05T23:34:40.067Z,13.77
2022-10-05T23:39:42.920Z,13.70
2022-10-05T23:44:44.478Z,13.51
2022-10-05T23:49:46.111Z,13.50
2022-10-05T23:54:47.791Z,13.50
2022-10-05T23:59:52.124Z,13.52
